createdAt,value
2024-04-21T00:01:01.945Z,0.90
2024-04-21T00:03:08.270Z,0.80
2024-04-21T00:05:11.364Z,0.77
2024-04-21T00:07:16.988Z,0.88
2024-04-21T00:09:19.895Z,0.68
2024-04-21T00:11:25.727Z,1.00
2024-04-21T00:13:28.702Z,0.70
2024-04-21T00:15:36.911Z,0.70
2024-04-21T00:17:39.873Z,0.90
2024-04-21T00:19:45.537Z,0.80
2024-04-21T00:21:48.504Z,0.60
2024-04-21T00:23:54.341Z,0.65
2024-04-21T00:25:58.130Z,0.70
2024-04-21T00:28:03.971Z,0.60
2024-04-21T00:30:12.204Z,0.90
2024-04-21T00:32:20.451Z,0.65
2024-04-21T00:34:23.413Z,1.05
2024-04-21T00:36:29.119Z,0.77
2024-04-21T00:38:31.996Z,0.85
2024-04-21T00:40:37.949Z,0.80
2024-04-21T00:42:40.995Z,0.90
2024-04-21T00:44:46.558Z,0.65
2024-04-21T00:46:49.824Z,0.80
2024-04-21T00:48:59.368Z,0.70
2024-04-21T00:51:03.152Z,0.80
2024-04-21T00:53:14.117Z,0.63
2024-04-21T00:55:17.460Z,0.80
2024-04-21T00:57:23.203Z,0.75
2024-04-21T00:59:28.951Z,0.98
2024-04-21T01:01:34.784Z,1.02
2024-04-21T01:03:37.760Z,1.02
2024-04-21T01:05:46.298Z,0.70
2024-04-21T01:07:49.251Z,1.30
2024-04-21T01:09:55.339Z,0.70
2024-04-21T01:11:58.277Z,1.25
2024-04-21T01:14:03.770Z,0.90
2024-04-21T01:16:07.212Z,0.95
2024-04-21T01:18:13.355Z,0.77
2024-04-21T01:20:17.704Z,0.80
2024-04-21T01:22:26.076Z,0.85
2024-04-21T01:24:31.685Z,0.60
2024-04-21T01:26:37.687Z,0.85
2024-04-21T01:28:40.670Z,1.00
2024-04-21T01:30:46.334Z,0.70
2024-04-21T01:32:49.759Z,0.93
2024-04-21T01:34:55.815Z,0.70
2024-04-21T01:36:58.703Z,0.70
2024-04-21T01:39:04.393Z,0.68
2024-04-21T01:41:10.178Z,0.52
2024-04-21T01:43:16.066Z,0.80
2024-04-21T01:45:19.116Z,0.80
2024-04-21T01:47:24.939Z,0.50
2024-04-21T01:49:27.908Z,0.70
2024-04-21T01:51:33.445Z,0.70
2024-04-21T01:53:37.060Z,0.52
2024-04-21T01:55:42.626Z,0.68
2024-04-21T01:57:48.100Z,0.82
2024-04-21T01:59:53.722Z,1.10
2024-04-21T02:01:56.969Z,0.68
2024-04-21T02:04:03.067Z,1.40
2024-04-21T02:06:06.718Z,0.68
2024-04-21T02:08:12.271Z,1.13
2024-04-21T02:10:15.717Z,0.80
2024-04-21T02:12:21.187Z,0.65
2024-04-21T02:14:27.197Z,0.70
2024-04-21T02:16:32.714Z,1.23
2024-04-21T02:18:35.912Z,0.75
2024-04-21T02:20:41.546Z,0.77
2024-04-21T02:22:44.561Z,0.50
2024-04-21T02:24:50.198Z,0.68
2024-04-21T02:26:53.109Z,0.70
2024-04-21T02:28:58.990Z,0.60
2024-04-21T02:31:05.326Z,1.10
2024-04-21T02:33:11.094Z,0.55
2024-04-21T02:35:14.126Z,0.88
2024-04-21T02:37:20.039Z,0.70
2024-04-21T02:39:23.039Z,0.70
2024-04-21T02:41:28.602Z,0.68
2024-04-21T02:43:31.528Z,0.63
2024-04-21T02:45:37.382Z,0.60
2024-04-21T02:47:42.881Z,0.60
2024-04-21T02:49:48.230Z,0.50
2024-04-21T02:51:53.862Z,0.70
2024-04-21T02:53:57.907Z,0.60
2024-04-21T02:56:00.645Z,0.60
2024-04-21T02:58:06.509Z,0.60
2024-04-21T03:00:11.090Z,0.70
2024-04-21T03:02:16.746Z,0.60
2024-04-21T03:04:22.626Z,0.60
2024-04-21T03:06:28.225Z,0.50
2024-04-21T03:08:31.200Z,0.40
2024-04-21T03:10:36.936Z,0.82
2024-04-21T03:12:39.864Z,0.75
2024-04-21T03:14:45.721Z,0.60
2024-04-21T03:16:48.773Z,0.60
2024-04-21T03:18:54.417Z,0.65
2024-04-21T03:21:00.897Z,0.60
2024-04-21T03:23:06.805Z,0.73
2024-04-21T03:25:09.833Z,0.55
2024-04-21T03:27:15.493Z,0.80
2024-04-21T03:29:18.584Z,0.90
2024-04-21T03:31:24.291Z,1.00
2024-04-21T03:33:27.754Z,0.60
2024-04-21T03:35:33.612Z,0.70
2024-04-21T03:37:41.981Z,0.70
2024-04-21T03:39:47.512Z,0.68
2024-04-21T03:41:53.147Z,0.70
2024-04-21T03:44:00.502Z,1.23
2024-04-21T03:46:03.511Z,1.08
2024-04-21T03:48:09.634Z,0.85
2024-04-21T03:50:12.871Z,1.05
2024-04-21T03:52:18.804Z,1.00
2024-04-21T03:54:24.690Z,0.85
2024-04-21T03:56:31.533Z,1.10
2024-04-21T03:58:34.768Z,0.93
2024-04-21T04:00:41.070Z,0.70
2024-04-21T04:02:44.274Z,0.77
2024-04-21T04:04:52.738Z,0.63
2024-04-21T04:06:56.083Z,0.80
2024-04-21T04:09:01.711Z,1.05
2024-04-21T04:11:07.634Z,0.90
2024-04-21T04:13:13.878Z,0.98
2024-04-21T04:15:18.473Z,0.90
2024-04-21T04:17:24.019Z,0.68
2024-04-21T04:19:27.142Z,0.80
2024-04-21T04:21:32.993Z,0.70
2024-04-21T04:23:36.087Z,0.80
2024-04-21T04:25:41.611Z,1.05
2024-04-21T04:27:47.542Z,0.85
2024-04-21T04:29:53.101Z,0.88
2024-04-21T04:31:55.956Z,0.82
2024-04-21T04:34:01.657Z,0.60
2024-04-21T04:36:05.039Z,1.02
2024-04-21T04:38:11.020Z,0.70
2024-04-21T04:40:14.015Z,0.95
2024-04-21T04:42:19.763Z,0.70
2024-04-21T04:44:25.385Z,0.70
2024-04-21T04:46:31.196Z,0.70
2024-04-21T04:48:35.471Z,0.90
2024-04-21T04:50:41.929Z,1.50
2024-04-21T04:52:44.868Z,0.93
2024-04-21T04:54:50.657Z,0.90
2024-04-21T04:56:54.593Z,0.88
2024-04-21T04:59:00.514Z,0.73
2024-04-21T05:01:06.472Z,0.70
2024-04-21T05:03:12.563Z,0.80
2024-04-21T05:05:15.856Z,1.45
2024-04-21T05:07:21.602Z,0.90
2024-04-21T05:09:24.609Z,1.08
2024-04-21T05:11:30.389Z,0.70
2024-04-21T05:13:33.503Z,0.73
2024-04-21T05:15:39.026Z,0.77
2024-04-21T05:17:44.567Z,0.70
2024-04-21T05:19:50.323Z,0.95
2024-04-21T05:21:53.463Z,0.70
2024-04-21T05:23:59.010Z,1.00
2024-04-21T05:26:01.924Z,0.75
2024-04-21T05:28:08.167Z,0.50
2024-04-21T05:30:12.204Z,0.63
2024-04-21T05:32:17.986Z,0.60
2024-04-21T05:34:23.578Z,0.73
2024-04-21T05:36:29.129Z,0.77
2024-04-21T05:38:31.934Z,0.80
2024-04-21T05:40:37.746Z,0.90
2024-04-21T05:42:41.774Z,0.70
2024-04-21T05:44:49.591Z,0.60
2024-04-21T05:46:56.430Z,1.02
2024-04-21T05:49:04.298Z,0.73
2024-04-21T05:51:09.834Z,1.40
2024-04-21T05:53:15.328Z,1.60
2024-04-21T05:55:18.841Z,0.73
2024-04-21T05:57:24.416Z,0.80
2024-04-21T05:59:30.123Z,0.90
2024-04-21T06:01:36.227Z,0.70
2024-04-21T06:03:39.340Z,0.80
2024-04-21T06:05:46.597Z,0.80
2024-04-21T06:07:52.100Z,0.63
2024-04-21T06:09:58.860Z,0.60
2024-04-21T06:12:02.676Z,0.70
2024-04-21T06:14:11.541Z,0.80
2024-04-21T06:16:14.579Z,0.67
2024-04-21T06:18:20.354Z,0.77
2024-04-21T06:20:23.384Z,0.60
2024-04-21T06:22:28.991Z,0.70
2024-04-21T06:24:34.799Z,1.00
2024-04-21T06:26:43.716Z,0.90
2024-04-21T06:28:47.962Z,1.13
2024-04-21T06:30:57.916Z,0.93
2024-04-21T06:33:01.085Z,0.53
2024-04-21T06:35:09.143Z,0.60
2024-04-21T06:37:12.988Z,0.87
2024-04-21T06:39:18.568Z,0.60
2024-04-21T06:41:24.333Z,0.60
2024-04-21T06:43:30.391Z,0.50
2024-04-21T06:45:33.316Z,0.50
2024-04-21T06:47:39.297Z,0.43
2024-04-21T06:49:42.279Z,0.40
2024-04-21T06:51:48.246Z,0.50
2024-04-21T06:53:51.157Z,0.50
2024-04-21T06:55:56.851Z,0.60
2024-04-21T06:58:02.657Z,0.47
2024-04-21T07:00:09.332Z,0.50
2024-04-21T07:02:12.382Z,0.50
2024-04-21T07:04:18.036Z,0.50
2024-04-21T07:06:21.471Z,0.50
2024-04-21T07:08:27.017Z,0.57
2024-04-21T07:10:29.868Z,0.43
2024-04-21T07:12:35.380Z,0.40
2024-04-21T07:14:41.006Z,0.50
2024-04-21T07:16:46.742Z,0.60
2024-04-21T07:18:52.398Z,0.40
2024-04-21T07:21:00.170Z,0.50
2024-04-21T07:23:03.353Z,0.30
2024-04-21T07:25:16.709Z,0.30
2024-04-21T07:27:25.502Z,0.40
2024-04-21T07:29:31.286Z,0.50
2024-04-21T07:31:36.905Z,0.60
2024-04-21T07:33:42.540Z,0.40
2024-04-21T07:35:45.423Z,0.60
2024-04-21T07:37:51.056Z,0.40
2024-04-21T07:39:54.001Z,0.40
2024-04-21T07:41:59.867Z,0.50
2024-04-21T07:44:02.757Z,0.50
2024-04-21T07:46:08.454Z,0.50
2024-04-21T07:48:14.842Z,0.50
2024-04-21T07:50:21.273Z,0.50
2024-04-21T07:52:24.264Z,0.50
2024-04-21T07:54:30.146Z,0.40
2024-04-21T07:56:33.267Z,0.50
2024-04-21T07:58:39.138Z,0.60
2024-04-21T08:00:42.083Z,0.57
2024-04-21T08:02:48.082Z,0.67
2024-04-21T08:04:53.807Z,0.53
2024-04-21T08:06:59.690Z,0.70
2024-04-21T08:09:11.535Z,0.50
2024-04-21T08:11:28.243Z,0.60
2024-04-21T08:13:31.188Z,0.60
2024-04-21T08:15:36.417Z,0.60
2024-04-21T08:17:43.561Z,0.53
2024-04-21T08:19:46.526Z,0.50
2024-04-21T08:21:54.872Z,0.50
2024-04-21T08:23:57.990Z,0.50
2024-04-21T08:26:04.957Z,0.80
2024-04-21T08:28:07.985Z,0.60
2024-04-21T08:30:14.556Z,0.50
2024-04-21T08:32:17.511Z,0.50
2024-04-21T08:34:24.020Z,0.70
2024-04-21T08:36:27.059Z,0.60
2024-04-21T08:38:35.692Z,0.50
2024-04-21T08:40:40.449Z,0.60
2024-04-21T08:42:47.210Z,0.80
2024-04-21T08:44:52.085Z,0.50
2024-04-21T08:46:58.174Z,0.50
2024-04-21T08:49:01.245Z,0.53
2024-04-21T08:51:07.032Z,0.50
2024-04-21T08:53:10.167Z,0.50
2024-04-21T08:55:18.765Z,0.50
2024-04-21T08:57:23.736Z,0.60
2024-04-21T08:59:29.680Z,0.47
2024-04-21T09:01:35.758Z,0.77
2024-04-21T09:03:40.393Z,0.40
2024-04-21T09:05:43.577Z,0.40
2024-04-21T09:07:50.335Z,0.60
2024-04-21T09:09:54.821Z,0.50
2024-04-21T09:12:03.238Z,0.60
2024-04-21T09:14:06.294Z,0.60
2024-04-21T09:16:12.483Z,0.50
2024-04-21T09:18:15.488Z,0.50
2024-04-21T09:20:21.401Z,0.70
2024-04-21T09:22:24.631Z,0.50
2024-04-21T09:24:31.771Z,0.50
2024-04-21T09:26:34.943Z,0.50
2024-04-21T09:28:43.700Z,0.60
2024-04-21T09:30:47.689Z,0.60
2024-04-21T09:32:53.752Z,0.60
2024-04-21T09:34:57.565Z,0.50
2024-04-21T09:37:04.357Z,0.60
2024-04-21T09:39:08.204Z,0.70
2024-04-21T09:41:15.400Z,0.50
2024-04-21T09:43:18.954Z,0.50
2024-04-21T09:45:29.687Z,0.60
2024-04-21T09:47:33.406Z,0.60
2024-04-21T09:49:40.309Z,0.50
2024-04-21T09:51:43.365Z,0.50
2024-04-21T09:53:51.140Z,0.50
2024-04-21T09:55:58.006Z,0.50
2024-04-21T09:58:05.896Z,0.60
2024-04-21T10:00:15.646Z,0.60
2024-04-21T10:02:29.120Z,0.60
2024-04-21T10:04:55.335Z,0.50
2024-04-21T10:07:34.394Z,0.73
2024-04-21T10:09:42.217Z,0.63
2024-04-21T10:11:55.254Z,0.80
2024-04-21T10:14:19.647Z,0.70
2024-04-21T10:16:28.284Z,0.40
2024-04-21T10:18:40.077Z,0.80
2024-04-21T10:20:46.043Z,0.50
2024-04-21T10:22:52.083Z,0.50
2024-04-21T10:24:58.151Z,0.80
2024-04-21T10:27:01.620Z,0.43
2024-04-21T10:29:13.570Z,0.40
2024-04-21T10:31:16.451Z,0.40
2024-04-21T10:33:35.814Z,0.50
2024-04-21T10:35:42.129Z,0.50
2024-04-21T10:37:52.962Z,0.47
2024-04-21T10:40:05.104Z,0.60
2024-04-21T10:42:14.315Z,0.50
2024-04-21T10:44:17.144Z,0.40
2024-04-21T10:46:23.338Z,0.60
2024-04-21T10:48:26.759Z,0.40
2024-04-21T10:50:32.807Z,0.60
2024-04-21T10:52:38.791Z,0.60
2024-04-21T10:54:44.716Z,0.60
2024-04-21T10:56:50.818Z,0.47
2024-04-21T10:58:56.568Z,0.70
2024-04-21T11:00:59.799Z,0.43
2024-04-21T11:03:05.481Z,0.60
2024-04-21T11:05:08.908Z,0.90
2024-04-21T11:07:14.917Z,0.53
2024-04-21T11:09:21.678Z,0.50
2024-04-21T11:11:27.204Z,0.93
2024-04-21T11:13:30.376Z,0.50
2024-04-21T11:15:35.889Z,0.87
2024-04-21T11:17:38.880Z,0.50
2024-04-21T11:19:44.411Z,0.40
2024-04-21T11:21:47.581Z,0.50
2024-04-21T11:23:53.703Z,0.60
2024-04-21T11:26:03.747Z,0.60
2024-04-21T11:28:15.839Z,0.80
2024-04-21T11:30:20.629Z,0.60
2024-04-21T11:32:26.336Z,0.60
2024-04-21T11:34:29.850Z,0.50
2024-04-21T11:36:36.874Z,0.50
2024-04-21T11:38:40.161Z,0.50
2024-04-21T11:40:45.993Z,0.50
2024-04-21T11:42:51.640Z,0.60
2024-04-21T11:44:57.510Z,0.50
2024-04-21T11:47:01.503Z,0.50
2024-04-21T11:49:08.480Z,0.50
2024-04-21T11:51:13.424Z,0.53
2024-04-21T11:53:20.956Z,0.40
2024-04-21T11:55:23.984Z,0.50
2024-04-21T11:57:29.824Z,0.50
2024-04-21T11:59:35.669Z,0.50
2024-04-21T12:01:49.458Z,0.50
2024-04-21T12:03:53.683Z,0.80
2024-04-21T12:05:59.874Z,0.47
2024-04-21T12:08:03.331Z,0.40
2024-04-21T12:10:09.249Z,0.40
2024-04-21T12:12:12.383Z,0.50
2024-04-21T12:14:33.408Z,0.67
2024-04-21T12:16:39.244Z,0.60
2024-04-21T12:18:44.894Z,0.60
2024-04-21T12:20:48.161Z,0.60
2024-04-21T12:22:57.527Z,0.60
2024-04-21T12:25:01.836Z,0.57
2024-04-21T12:27:07.747Z,0.50
2024-04-21T12:29:10.959Z,0.50
2024-04-21T12:31:16.981Z,0.50
2024-04-21T12:33:22.896Z,0.47
2024-04-21T12:35:28.943Z,0.43
2024-04-21T12:37:32.003Z,0.50
2024-04-21T12:39:38.081Z,0.40
2024-04-21T12:41:41.647Z,0.53
2024-04-21T12:43:47.197Z,0.50
2024-04-21T12:45:50.316Z,0.40
2024-04-21T12:47:56.402Z,0.50
2024-04-21T12:50:02.186Z,0.50
2024-04-21T12:52:08.578Z,0.60
2024-04-21T12:54:11.607Z,0.50
2024-04-21T12:56:18.131Z,0.60
2024-04-21T12:58:24.106Z,0.67
2024-04-21T13:00:30.190Z,0.50
2024-04-21T13:02:33.115Z,0.83
2024-04-21T13:04:38.869Z,0.60
2024-04-21T13:06:45.843Z,0.40
2024-04-21T13:08:49.070Z,0.50
2024-04-21T13:10:54.889Z,0.60
2024-04-21T13:12:57.816Z,0.60
2024-04-21T13:15:03.506Z,0.50
2024-04-21T13:17:06.595Z,0.60
2024-04-21T13:19:12.756Z,0.50
2024-04-21T13:21:15.671Z,0.50
2024-04-21T13:23:24.088Z,0.50
2024-04-21T13:25:26.938Z,0.60
2024-04-21T13:27:34.290Z,0.60
2024-04-21T13:29:38.634Z,0.53
2024-04-21T13:31:45.476Z,0.50
2024-04-21T13:33:48.346Z,0.60
2024-04-21T13:35:54.451Z,0.50
2024-04-21T13:37:57.254Z,0.57
2024-04-21T13:40:07.121Z,0.90
2024-04-21T13:42:10.324Z,0.60
2024-04-21T13:44:16.071Z,0.53
2024-04-21T13:46:19.070Z,0.50
2024-04-21T13:48:24.827Z,0.60
2024-04-21T13:50:28.131Z,0.63
2024-04-21T13:52:33.758Z,0.50
2024-04-21T13:54:37.010Z,0.50
2024-04-21T13:56:45.301Z,0.60
2024-04-21T13:58:48.179Z,0.50
2024-04-21T14:00:54.050Z,0.40
2024-04-21T14:02:57.021Z,0.50
2024-04-21T14:05:02.867Z,0.50
2024-04-21T14:07:05.851Z,0.60
2024-04-21T14:09:11.662Z,0.47
2024-04-21T14:11:14.578Z,0.50
2024-04-21T14:13:23.516Z,0.70
2024-04-21T14:15:26.439Z,0.50
2024-04-21T14:17:32.363Z,0.57
2024-04-21T14:19:35.653Z,0.50
2024-04-21T14:21:41.199Z,0.53
2024-04-21T14:23:44.264Z,0.60
2024-04-21T14:25:50.317Z,0.40
2024-04-21T14:27:53.320Z,0.73
2024-04-21T14:30:01.547Z,0.53
2024-04-21T14:32:04.780Z,0.50
2024-04-21T14:34:10.740Z,0.53
2024-04-21T14:36:13.690Z,0.47
2024-04-21T14:38:19.561Z,0.60
2024-04-21T14:40:22.716Z,0.40
2024-04-21T14:42:28.496Z,0.63
2024-04-21T14:44:36.489Z,0.73
2024-04-21T14:46:46.896Z,0.60
2024-04-21T14:48:49.838Z,0.70
2024-04-21T14:50:58.877Z,0.70
2024-04-21T14:53:02.629Z,0.60
2024-04-21T14:55:08.829Z,0.43
2024-04-21T14:57:12.199Z,0.50
2024-04-21T14:59:17.792Z,0.40
2024-04-21T15:01:21.034Z,0.47
2024-04-21T15:03:31.248Z,0.50
2024-04-21T15:05:34.277Z,0.50
2024-04-21T15:07:39.833Z,0.60
2024-04-21T15:09:42.697Z,0.50
2024-04-21T15:11:48.141Z,0.60
2024-04-21T15:13:51.159Z,0.70
2024-04-21T15:15:57.000Z,0.73
2024-04-21T15:18:00.908Z,0.70
2024-04-21T15:20:10.964Z,0.60
2024-04-21T15:22:13.898Z,0.60
2024-04-21T15:24:22.028Z,0.50
2024-04-21T15:26:24.911Z,0.60
2024-04-21T15:28:30.700Z,0.60
2024-04-21T15:30:35.301Z,0.53
2024-04-21T15:32:42.139Z,0.53
2024-04-21T15:34:45.183Z,0.40
2024-04-21T15:36:53.535Z,0.50
2024-04-21T15:38:56.462Z,0.50
2024-04-21T15:41:02.101Z,0.43
2024-04-21T15:43:08.059Z,0.60
2024-04-21T15:45:17.087Z,0.53
2024-04-21T15:47:19.980Z,0.50
2024-04-21T15:49:25.817Z,0.50
2024-04-21T15:51:28.783Z,0.50
2024-04-21T15:53:36.946Z,0.50
2024-04-21T15:55:39.964Z,0.83
2024-04-21T15:57:46.491Z,0.90
2024-04-21T15:59:49.646Z,0.70
2024-04-21T16:01:55.510Z,0.63
2024-04-21T16:03:58.535Z,0.97
2024-04-21T16:06:04.585Z,0.70
2024-04-21T16:08:09.488Z,0.70
2024-04-21T16:10:18.066Z,0.80
2024-04-21T16:12:21.294Z,1.20
2024-04-21T16:14:27.955Z,0.60
2024-04-21T16:16:31.356Z,0.67
2024-04-21T16:18:37.343Z,0.73
2024-04-21T16:20:42.740Z,0.83
2024-04-21T16:22:48.807Z,0.70
2024-04-21T16:24:52.118Z,0.60
2024-04-21T16:27:00.483Z,0.60
2024-04-21T16:29:03.347Z,0.67
2024-04-21T16:31:08.953Z,0.67
2024-04-21T16:33:12.062Z,0.73
2024-04-21T16:35:15.535Z,0.50
2024-04-21T16:37:21.806Z,0.50
2024-04-21T16:39:25.395Z,0.53
2024-04-21T16:41:31.589Z,0.60
2024-04-21T16:43:38.166Z,0.70
2024-04-21T16:45:45.555Z,0.67
2024-04-21T16:47:51.166Z,0.70
2024-04-21T16:49:57.638Z,0.67
2024-04-21T16:52:02.138Z,0.80
2024-04-21T16:54:08.584Z,0.90
2024-04-21T16:56:13.061Z,0.90
2024-04-21T16:58:19.064Z,0.60
2024-04-21T17:00:25.833Z,0.80
2024-04-21T17:02:30.168Z,0.70
2024-04-21T17:04:38.502Z,0.50
2024-04-21T17:06:44.844Z,0.60
2024-04-21T17:08:51.271Z,0.80
2024-04-21T17:10:54.796Z,0.60
2024-04-21T17:13:00.453Z,0.90
2024-04-21T17:15:03.390Z,0.70
2024-04-21T17:17:11.796Z,1.00
2024-04-21T17:19:15.075Z,0.63
2024-04-21T17:21:20.861Z,1.63
2024-04-21T17:23:23.787Z,1.53
2024-04-21T17:25:29.684Z,0.60
2024-04-21T17:27:33.176Z,0.80
2024-04-21T17:29:38.749Z,0.70
2024-04-21T17:31:41.859Z,0.70
2024-04-21T17:33:50.472Z,1.00
2024-04-21T17:35:53.479Z,0.70
2024-04-21T17:37:58.939Z,0.70
2024-04-21T17:40:02.153Z,0.70
2024-04-21T17:42:08.452Z,0.70
2024-04-21T17:44:14.136Z,0.73
2024-04-21T17:46:19.798Z,0.77
2024-04-21T17:48:22.976Z,0.73
2024-04-21T17:50:31.490Z,1.10
2024-04-21T17:52:34.753Z,0.83
2024-04-21T17:54:48.330Z,0.70
2024-04-21T17:56:57.970Z,0.80
2024-04-21T17:59:03.582Z,0.93
2024-04-21T18:01:08.837Z,1.17
2024-04-21T18:03:14.540Z,0.80
2024-04-21T18:05:17.553Z,0.63
2024-04-21T18:07:27.268Z,1.07
2024-04-21T18:09:30.129Z,0.70
2024-04-21T18:11:40.100Z,1.07
2024-04-21T18:13:43.467Z,1.00
2024-04-21T18:15:50.152Z,0.87
2024-04-21T18:17:53.495Z,0.80
2024-04-21T18:19:59.153Z,1.20
2024-04-21T18:22:02.418Z,0.63
2024-04-21T18:24:11.093Z,1.07
2024-04-21T18:26:13.939Z,0.90
2024-04-21T18:28:19.573Z,0.70
2024-04-21T18:30:23.009Z,0.80
2024-04-21T18:32:26.333Z,0.83
2024-04-21T18:34:32.329Z,0.90
2024-04-21T18:36:35.514Z,1.30
2024-04-21T18:38:38.388Z,1.80
2024-04-21T18:40:47.005Z,1.03
2024-04-21T18:42:49.851Z,0.90
2024-04-21T18:44:59.957Z,0.90
2024-04-21T18:47:03.075Z,0.80
2024-04-21T18:49:09.282Z,0.93
2024-04-21T18:51:12.534Z,1.00
2024-04-21T18:53:18.953Z,0.80
2024-04-21T18:55:22.487Z,1.50
2024-04-21T18:57:31.264Z,0.93
2024-04-21T18:59:37.485Z,2.67
2024-04-21T19:01:43.283Z,1.50
2024-04-21T19:03:46.166Z,2.53
2024-04-21T19:05:51.895Z,1.92
2024-04-21T19:07:54.729Z,1.70
2024-04-21T19:10:06.734Z,1.45
2024-04-21T19:12:11.295Z,1.00
2024-04-21T19:14:20.153Z,0.93
2024-04-21T19:16:23.441Z,0.70
2024-04-21T19:18:29.876Z,1.08
2024-04-21T19:20:33.634Z,1.20
2024-04-21T19:22:39.645Z,1.13
2024-04-21T19:24:42.765Z,0.90
2024-04-21T19:26:48.305Z,1.08
2024-04-21T19:28:52.617Z,0.90
2024-04-21T19:31:01.211Z,0.90
2024-04-21T19:33:05.710Z,0.80
2024-04-21T19:35:11.653Z,0.93
2024-04-21T19:37:14.569Z,0.80
2024-04-21T19:39:20.277Z,1.10
2024-04-21T19:41:23.567Z,0.82
2024-04-21T19:43:29.464Z,0.68
2024-04-21T19:45:33.933Z,1.30
2024-04-21T19:47:42.744Z,1.10
2024-04-21T19:49:45.607Z,1.23
2024-04-21T19:51:51.281Z,1.30
2024-04-21T19:53:54.417Z,1.20
2024-04-21T19:56:01.755Z,1.33
2024-04-21T19:58:05.262Z,1.80
2024-04-21T20:00:12.604Z,2.20
2024-04-21T20:02:16.632Z,2.75
2024-04-21T20:04:25.135Z,2.10
2024-04-21T20:06:28.348Z,2.05
2024-04-21T20:08:33.930Z,2.88
2024-04-21T20:10:37.410Z,1.70
2024-04-21T20:12:43.109Z,1.48
2024-04-21T20:15:04.414Z,1.90
2024-04-21T20:17:25.795Z,1.60
2024-04-21T20:19:34.310Z,1.38
2024-04-21T20:21:42.265Z,1.23
2024-04-21T20:23:48.065Z,1.30
2024-04-21T20:25:50.911Z,1.52
2024-04-21T20:27:58.175Z,1.10
2024-04-21T20:30:01.046Z,1.20
2024-04-21T20:32:07.131Z,1.40
2024-04-21T20:34:10.057Z,0.95
2024-04-21T20:36:23.568Z,1.23
2024-04-21T20:38:26.484Z,1.60
2024-04-21T20:40:32.132Z,1.75
2024-04-21T20:42:35.179Z,0.90
2024-04-21T20:44:41.498Z,1.70
2024-04-21T20:46:44.481Z,1.40
2024-04-21T20:48:50.010Z,1.27
2024-04-21T20:50:53.153Z,1.42
2024-04-21T20:53:02.024Z,1.20
2024-04-21T20:55:06.083Z,1.17
2024-04-21T20:57:11.755Z,1.88
2024-04-21T20:59:14.770Z,1.20
2024-04-21T21:01:17.746Z,2.08
2024-04-21T21:03:23.558Z,2.08
2024-04-21T21:05:26.489Z,2.55
2024-04-21T21:07:32.165Z,2.20
2024-04-21T21:09:37.776Z,2.35
2024-04-21T21:11:43.724Z,1.98
2024-04-21T21:13:46.651Z,2.05
2024-04-21T21:15:52.236Z,1.58
2024-04-21T21:17:55.132Z,2.03
2024-04-21T21:20:00.964Z,1.73
2024-04-21T21:22:04.129Z,2.08
2024-04-21T21:24:07.419Z,1.80
2024-04-21T21:26:18.437Z,1.98
2024-04-21T21:28:24.264Z,2.75
2024-04-21T21:30:29.882Z,2.92
2024-04-21T21:32:32.983Z,3.75
2024-04-21T21:34:38.894Z,4.78
2024-04-21T21:36:42.025Z,4.20
2024-04-21T21:38:47.857Z,3.78
2024-04-21T21:40:51.008Z,4.32
2024-04-21T21:43:00.249Z,4.65
2024-04-21T21:45:06.046Z,3.53
2024-04-21T21:47:12.144Z,4.03
2024-04-21T21:49:15.285Z,3.42
2024-04-21T21:51:21.319Z,3.88
2024-04-21T21:53:24.549Z,3.60
2024-04-21T21:55:27.431Z,2.75
2024-04-21T21:57:33.401Z,2.90
2024-04-21T21:59:39.169Z,3.47
2024-04-21T22:01:44.969Z,2.80
2024-04-21T22:03:47.973Z,2.88
2024-04-21T22:05:53.684Z,3.88
2024-04-21T22:07:56.660Z,4.20
2024-04-21T22:10:02.403Z,3.85
2024-04-21T22:12:06.391Z,6.20
2024-04-21T22:14:13.780Z,13.20
2024-04-21T22:16:19.304Z,16.75
2024-04-21T22:18:24.854Z,16.50
2024-04-21T22:20:27.730Z,14.13
2024-04-21T22:22:33.621Z,10.35
2024-04-21T22:24:36.499Z,9.98
2024-04-21T22:26:42.274Z,14.30
2024-04-21T22:28:45.326Z,10.70
2024-04-21T22:30:50.873Z,19.98
2024-04-21T22:32:56.613Z,13.40
2024-04-21T22:35:02.264Z,10.32
2024-04-21T22:37:05.434Z,7.20
2024-04-21T22:39:11.234Z,7.03
2024-04-21T22:41:17.625Z,7.05
2024-04-21T22:43:24.840Z,6.63
2024-04-21T22:45:27.779Z,6.65
2024-04-21T22:47:34.011Z,4.65
2024-04-21T22:49:39.627Z,3.78
2024-04-21T22:51:45.302Z,3.58
2024-04-21T22:53:48.124Z,3.10
2024-04-21T22:55:52.495Z,4.15
2024-04-21T22:57:58.327Z,3.83
2024-04-21T23:00:01.197Z,3.20
2024-04-21T23:02:07.100Z,2.20
2024-04-21T23:04:10.015Z,2.85
2024-04-21T23:06:19.299Z,2.80
2024-04-21T23:08:22.219Z,2.30
2024-04-21T23:10:28.063Z,2.22
2024-04-21T23:12:30.976Z,2.10
2024-04-21T23:14:37.001Z,2.00
2024-04-21T23:16:40.030Z,2.05
2024-04-21T23:18:45.869Z,2.30
2024-04-21T23:20:48.886Z,2.30
2024-04-21T23:22:57.423Z,2.10
2024-04-21T23:25:00.390Z,2.40
2024-04-21T23:27:03.334Z,1.65
2024-04-21T23:29:08.945Z,2.60
2024-04-21T23:31:11.914Z,2.00
2024-04-21T23:33:17.874Z,2.40
2024-04-21T23:35:20.763Z,2.00
2024-04-21T23:37:26.607Z,2.15
2024-04-21T23:39:32.225Z,2.15
2024-04-21T23:41:38.385Z,1.40
2024-04-21T23:43:41.318Z,2.40
2024-04-21T23:45:47.041Z,2.30
2024-04-21T23:47:50.636Z,2.40
2024-04-21T23:49:56.342Z,1.80
2024-04-21T23:51:59.333Z,2.53
2024-04-21T23:54:05.018Z,2.25
2024-04-21T23:56:12.238Z,2.30
2024-04-21T23:58:18.030Z,2.35
